createdAt,value
2019-02-19T00:01:49.337Z,24.12
2019-02-19T00:04:17.639Z,25.37
2019-02-19T00:06:47.257Z,26.20
2019-02-19T00:09:15.539Z,24.67
2019-02-19T00:11:43.788Z,23.90
2019-02-19T00:14:12.073Z,26.70
2019-02-19T00:16:40.342Z,27.02
2019-02-19T00:19:09.241Z,28.50
2019-02-19T00:21:37.542Z,26.77
2019-02-19T00:24:05.799Z,27.62
2019-02-19T00:26:34.100Z,26.27
2019-02-19T00:29:02.367Z,23.15
2019-02-19T00:31:30.640Z,24.20
2019-02-19T00:33:58.901Z,23.32
2019-02-19T00:36:27.183Z,24.98
2019-02-19T00:38:55.448Z,26.60
2019-02-19T00:41:23.788Z,24.18
2019-02-19T00:43:52.044Z,25.80
2019-02-19T00:46:20.339Z,24.20
2019-02-19T00:48:48.732Z,25.95
2019-02-19T00:51:17.024Z,23.12
2019-02-19T00:53:45.289Z,26.37
2019-02-19T00:56:13.624Z,22.15
2019-02-19T00:58:41.875Z,24.40
2019-02-19T01:01:10.172Z,21.73
2019-02-19T01:03:38.446Z,25.62
2019-02-19T01:06:09.158Z,25.37
2019-02-19T01:08:37.418Z,28.52
2019-02-19T01:11:05.763Z,23.62
2019-02-19T01:13:34.043Z,27.42
2019-02-19T01:16:02.313Z,27.50
2019-02-19T01:18:30.608Z,26.77
2019-02-19T01:20:58.878Z,25.90
2019-02-19T01:23:27.165Z,25.40
2019-02-19T01:25:55.416Z,25.68
2019-02-19T01:28:23.714Z,28.42
2019-02-19T01:30:53.878Z,25.30
2019-02-19T01:33:22.130Z,28.57
2019-02-19T01:35:50.394Z,34.73
2019-02-19T01:38:18.708Z,27.27
2019-02-19T01:40:46.981Z,26.33
2019-02-19T01:43:16.900Z,30.57
2019-02-19T01:45:45.162Z,29.98
2019-02-19T01:48:13.448Z,32.15
2019-02-19T01:50:43.387Z,27.52
2019-02-19T01:53:11.647Z,26.10
2019-02-19T01:55:39.924Z,30.50
2019-02-19T01:58:08.186Z,27.55
2019-02-19T02:00:36.484Z,26.80
2019-02-19T02:03:04.793Z,28.92
2019-02-19T02:05:33.079Z,27.15
2019-02-19T02:08:01.341Z,27.98
2019-02-19T02:10:29.642Z,26.42
2019-02-19T02:12:57.920Z,28.20
2019-02-19T02:15:26.217Z,27.10
2019-02-19T02:17:54.503Z,28.12
2019-02-19T02:20:22.834Z,29.48
2019-02-19T02:22:51.095Z,28.17
2019-02-19T02:25:19.443Z,27.10
2019-02-19T02:27:47.719Z,30.82
2019-02-19T02:30:16.163Z,31.37
2019-02-19T02:32:44.448Z,33.67
2019-02-19T02:35:12.797Z,35.95
2019-02-19T02:37:41.037Z,33.28
2019-02-19T02:40:09.361Z,32.93
2019-02-19T02:42:37.641Z,28.73
2019-02-19T02:45:05.965Z,29.23
2019-02-19T02:48:11.006Z,31.27
2019-02-19T02:50:39.271Z,28.47
2019-02-19T02:53:07.564Z,32.23
2019-02-19T02:55:35.831Z,32.48
2019-02-19T02:58:04.108Z,34.23
2019-02-19T03:00:32.385Z,32.15
2019-02-19T03:03:00.683Z,39.35
2019-02-19T03:05:28.939Z,30.30
2019-02-19T03:07:58.863Z,32.75
2019-02-19T03:10:27.123Z,32.55
2019-02-19T03:12:55.610Z,34.33
2019-02-19T03:15:23.870Z,32.03
2019-02-19T03:17:52.160Z,35.63
2019-02-19T03:20:20.462Z,33.98
2019-02-19T03:22:48.741Z,35.60
2019-02-19T03:25:17.031Z,36.45
2019-02-19T03:27:45.305Z,36.75
2019-02-19T03:30:13.680Z,32.85
2019-02-19T03:32:41.957Z,35.28
2019-02-19T03:35:10.232Z,37.73
2019-02-19T03:37:38.512Z,34.38
2019-02-19T03:40:07.923Z,34.63
2019-02-19T03:42:36.219Z,35.05
2019-02-19T03:45:06.361Z,34.03
2019-02-19T03:47:34.697Z,36.03
2019-02-19T03:50:03.183Z,34.92
2019-02-19T03:52:31.484Z,32.78
2019-02-19T03:54:59.784Z,35.75
2019-02-19T03:57:28.057Z,35.45
2019-02-19T03:59:56.344Z,37.35
2019-02-19T04:02:24.612Z,36.40
2019-02-19T04:04:52.888Z,35.60
2019-02-19T04:07:21.165Z,37.45
2019-02-19T04:09:49.442Z,38.50
2019-02-19T04:12:19.329Z,33.78
2019-02-19T04:14:47.607Z,38.02
2019-02-19T04:17:15.889Z,36.03
2019-02-19T04:19:44.151Z,36.98
2019-02-19T04:22:12.434Z,35.33
2019-02-19T04:24:40.844Z,38.55
2019-02-19T04:27:09.114Z,38.63
2019-02-19T04:29:37.358Z,36.10
2019-02-19T04:32:05.634Z,39.35
2019-02-19T04:34:33.884Z,34.95
2019-02-19T04:37:02.154Z,39.55
2019-02-19T04:39:30.408Z,41.05
2019-02-19T04:41:58.699Z,41.92
2019-02-19T04:44:26.966Z,44.88
2019-02-19T04:46:55.246Z,51.33
2019-02-19T04:49:28.047Z,45.80
2019-02-19T04:51:56.327Z,44.08
2019-02-19T04:54:24.597Z,46.33
2019-02-19T04:56:52.858Z,45.12
2019-02-19T04:59:21.135Z,51.95
2019-02-19T05:01:49.415Z,50.83
2019-02-19T05:04:17.671Z,46.65
2019-02-19T05:06:45.946Z,45.98
2019-02-19T05:09:14.224Z,46.13
2019-02-19T05:11:42.486Z,47.00
2019-02-19T05:14:10.835Z,51.77
2019-02-19T05:16:41.003Z,50.23
2019-02-19T05:19:09.177Z,48.80
2019-02-19T05:21:37.435Z,50.88
2019-02-19T05:24:05.721Z,49.10
2019-02-19T05:26:33.967Z,52.25
2019-02-19T05:29:02.237Z,51.40
2019-02-19T05:31:30.508Z,59.20
2019-02-19T05:33:58.796Z,48.85
2019-02-19T05:36:27.059Z,50.03
2019-02-19T05:38:55.316Z,49.03
2019-02-19T05:41:23.621Z,52.67
2019-02-19T05:43:51.915Z,53.52
2019-02-19T05:46:23.170Z,55.67
2019-02-19T05:48:51.425Z,55.43
2019-02-19T05:51:19.681Z,54.23
2019-02-19T05:53:47.955Z,52.13
2019-02-19T05:56:16.227Z,56.88
2019-02-19T05:58:44.495Z,48.60
2019-02-19T06:01:12.735Z,56.48
2019-02-19T06:03:41.011Z,58.00
2019-02-19T06:06:10.907Z,56.63
2019-02-19T06:08:39.205Z,60.52
2019-02-19T06:11:07.464Z,51.42
2019-02-19T06:13:35.743Z,57.85
2019-02-19T06:16:04.005Z,55.88
2019-02-19T06:18:32.290Z,59.45
2019-02-19T06:21:00.537Z,60.65
2019-02-19T06:23:28.831Z,52.45
2019-02-19T06:25:57.082Z,57.05
2019-02-19T06:28:25.335Z,55.08
2019-02-19T06:30:53.604Z,55.33
2019-02-19T06:33:21.866Z,62.30
2019-02-19T06:35:50.158Z,53.13
2019-02-19T06:38:18.429Z,53.80
2019-02-19T06:40:46.705Z,51.15
2019-02-19T06:43:14.958Z,52.23
2019-02-19T06:45:45.586Z,50.50
2019-02-19T06:48:13.850Z,55.20
2019-02-19T06:50:42.125Z,45.65
2019-02-19T06:53:10.391Z,49.25
2019-02-19T06:55:38.646Z,55.45
2019-02-19T06:58:06.909Z,52.23
2019-02-19T07:00:35.193Z,54.38
2019-02-19T07:03:07.765Z,51.30
2019-02-19T07:05:36.055Z,51.05
2019-02-19T07:08:05.932Z,51.00
2019-02-19T07:10:34.200Z,55.45
2019-02-19T07:13:02.450Z,51.08
2019-02-19T07:15:30.710Z,53.00
2019-02-19T07:17:58.991Z,49.50
2019-02-19T07:20:27.239Z,48.02
2019-02-19T07:22:55.506Z,45.73
2019-02-19T07:25:23.847Z,50.28
2019-02-19T07:27:52.148Z,47.98
2019-02-19T07:30:20.463Z,49.93
2019-02-19T07:32:48.733Z,45.43
2019-02-19T07:35:17.032Z,47.95
2019-02-19T07:37:45.974Z,51.60
2019-02-19T07:40:14.310Z,54.50
2019-02-19T07:42:42.591Z,48.68
2019-02-19T07:45:12.538Z,52.23
2019-02-19T07:47:40.808Z,47.67
2019-02-19T07:50:10.687Z,46.20
2019-02-19T07:52:38.967Z,50.25
2019-02-19T07:55:09.630Z,51.33
2019-02-19T07:57:37.912Z,43.28
2019-02-19T08:00:11.555Z,43.40
2019-02-19T08:02:39.802Z,46.00
2019-02-19T08:05:08.691Z,46.15
2019-02-19T08:07:36.951Z,42.38
2019-02-19T08:10:08.174Z,42.55
2019-02-19T08:12:36.439Z,43.33
2019-02-19T08:15:09.306Z,40.70
2019-02-19T08:17:37.817Z,41.77
2019-02-19T08:20:15.481Z,43.73
2019-02-19T08:22:38.605Z,40.67
2019-02-19T08:25:08.578Z,40.80
2019-02-19T08:27:36.826Z,41.15
2019-02-19T08:30:07.396Z,39.00
2019-02-19T08:32:35.678Z,40.98
2019-02-19T08:35:04.246Z,39.08
2019-02-19T08:37:32.607Z,44.30
2019-02-19T08:40:00.829Z,42.50
2019-02-19T08:42:29.075Z,37.23
2019-02-19T08:44:57.455Z,40.88
2019-02-19T08:47:25.721Z,38.33
2019-02-19T08:49:54.008Z,40.15
2019-02-19T08:52:22.267Z,39.00
2019-02-19T08:54:50.623Z,35.83
2019-02-19T08:57:18.925Z,34.65
2019-02-19T08:59:47.187Z,39.83
2019-02-19T09:02:15.445Z,34.18
2019-02-19T09:04:43.715Z,38.28
2019-02-19T09:07:12.390Z,36.15
2019-02-19T09:09:40.957Z,34.85
2019-02-19T09:12:09.240Z,39.10
2019-02-19T09:14:37.511Z,35.50
2019-02-19T09:17:05.859Z,32.60
2019-02-19T09:19:34.133Z,36.83
2019-02-19T09:22:02.401Z,35.17
2019-02-19T09:24:33.539Z,36.08
2019-02-19T09:27:02.178Z,35.48
2019-02-19T09:29:30.452Z,36.42
2019-02-19T09:31:58.784Z,33.00
2019-02-19T09:34:27.051Z,30.62
2019-02-19T09:36:55.442Z,28.85
2019-02-19T09:39:23.732Z,35.60
2019-02-19T09:41:52.019Z,34.33
2019-02-19T09:44:23.353Z,30.23
2019-02-19T09:46:51.638Z,31.05
2019-02-19T09:49:19.889Z,36.10
2019-02-19T09:51:48.161Z,33.88
2019-02-19T09:54:16.445Z,30.43
2019-02-19T09:56:44.702Z,34.92
2019-02-19T09:59:14.626Z,34.18
2019-02-19T10:01:42.902Z,32.17
2019-02-19T10:04:11.183Z,33.20
2019-02-19T10:06:39.450Z,33.10
2019-02-19T10:09:09.571Z,34.25
2019-02-19T10:11:37.848Z,28.92
2019-02-19T10:14:06.112Z,35.20
2019-02-19T10:16:41.451Z,29.25
2019-02-19T10:19:04.423Z,30.02
2019-02-19T10:21:32.676Z,35.20
2019-02-19T10:24:00.972Z,31.02
2019-02-19T10:26:29.246Z,30.12
2019-02-19T10:28:57.535Z,32.28
2019-02-19T10:31:26.615Z,32.50
2019-02-19T10:33:54.897Z,28.05
2019-02-19T10:36:23.144Z,29.98
2019-02-19T10:38:51.416Z,31.95
2019-02-19T10:41:19.670Z,32.55
2019-02-19T10:43:47.956Z,27.65
2019-02-19T10:46:16.203Z,28.92
2019-02-19T10:48:44.513Z,27.45
2019-02-19T10:51:12.755Z,28.10
2019-02-19T10:53:41.046Z,32.63
2019-02-19T10:56:09.339Z,29.05
2019-02-19T10:58:37.614Z,34.23
2019-02-19T11:01:05.869Z,32.63
2019-02-19T11:03:34.149Z,29.15
2019-02-19T11:06:02.416Z,30.45
2019-02-19T11:08:30.669Z,31.00
2019-02-19T11:10:58.939Z,33.90
2019-02-19T11:13:27.192Z,33.18
2019-02-19T11:15:55.508Z,34.85
2019-02-19T11:18:28.358Z,33.23
2019-02-19T11:20:53.765Z,31.77
2019-02-19T11:23:22.025Z,32.38
2019-02-19T11:25:50.443Z,31.45
2019-02-19T11:28:18.698Z,33.75
2019-02-19T11:30:47.009Z,31.70
2019-02-19T11:33:15.256Z,31.10
2019-02-19T11:35:43.600Z,28.32
2019-02-19T11:38:11.859Z,29.07
2019-02-19T11:40:40.144Z,28.83
2019-02-19T11:43:08.401Z,27.32
2019-02-19T11:45:36.745Z,30.52
2019-02-19T11:48:04.993Z,26.87
2019-02-19T11:50:33.312Z,28.23
2019-02-19T11:53:01.586Z,24.65
2019-02-19T11:55:29.863Z,25.95
2019-02-19T11:57:58.150Z,24.95
2019-02-19T12:00:40.111Z,26.40
2019-02-19T12:03:08.465Z,29.00
2019-02-19T12:05:36.824Z,27.48
2019-02-19T12:08:05.255Z,27.10
2019-02-19T12:10:33.664Z,25.97
2019-02-19T12:13:01.956Z,29.50
2019-02-19T12:15:35.090Z,26.27
2019-02-19T12:18:00.223Z,27.87
2019-02-19T12:20:28.464Z,27.30
2019-02-19T12:22:57.672Z,26.15
2019-02-19T12:25:25.925Z,24.43
2019-02-19T12:27:54.242Z,28.40
2019-02-19T12:30:22.530Z,24.02
2019-02-19T12:32:50.855Z,26.97
2019-02-19T12:35:19.167Z,30.32
2019-02-19T12:37:47.447Z,25.72
2019-02-19T12:40:15.737Z,27.87
2019-02-19T12:42:44.088Z,24.82
2019-02-19T12:45:15.644Z,27.93
2019-02-19T12:47:43.894Z,29.85
2019-02-19T12:50:16.867Z,28.27
2019-02-19T12:52:45.203Z,23.47
2019-02-19T12:55:13.596Z,23.90
2019-02-19T12:57:41.871Z,25.88
2019-02-19T13:00:21.029Z,25.80
2019-02-19T13:02:49.286Z,28.92
2019-02-19T13:05:17.810Z,27.98
2019-02-19T13:07:47.077Z,26.93
2019-02-19T13:10:15.558Z,24.32
2019-02-19T13:12:45.484Z,26.48
2019-02-19T13:15:17.065Z,26.42
2019-02-19T13:17:45.394Z,23.47
2019-02-19T13:20:15.333Z,23.87
2019-02-19T13:22:43.599Z,26.17
2019-02-19T13:25:12.262Z,27.62
2019-02-19T13:27:40.535Z,27.70
2019-02-19T13:30:12.123Z,23.57
2019-02-19T13:32:40.459Z,31.27
2019-02-19T13:35:10.942Z,28.75
2019-02-19T13:37:39.195Z,27.75
2019-02-19T13:40:11.549Z,28.38
2019-02-19T13:42:39.771Z,30.52
2019-02-19T13:45:10.734Z,26.65
2019-02-19T13:47:38.990Z,26.00
2019-02-19T13:50:32.513Z,28.70
2019-02-19T13:53:05.312Z,27.75
2019-02-19T13:55:35.269Z,21.80
2019-02-19T13:58:03.518Z,31.70
2019-02-19T14:00:33.475Z,29.48
2019-02-19T14:03:01.740Z,32.15
2019-02-19T14:05:30.014Z,28.02
2019-02-19T14:07:58.315Z,23.30
2019-02-19T14:10:28.074Z,22.00
2019-02-19T14:12:56.361Z,23.40
2019-02-19T14:15:42.495Z,26.05
2019-02-19T14:18:12.394Z,27.30
2019-02-19T14:20:51.501Z,30.40
2019-02-19T14:26:22.390Z,29.00
2019-02-19T14:28:57.982Z,30.75
2019-02-19T14:31:27.929Z,27.67
2019-02-19T14:34:13.226Z,30.17
2019-02-19T14:36:58.030Z,25.27
2019-02-19T14:39:39.771Z,25.12
2019-02-19T14:42:12.715Z,27.45
2019-02-19T14:44:45.401Z,29.87
2019-02-19T14:47:30.361Z,25.50
2019-02-19T14:50:02.864Z,23.65
2019-02-19T14:55:34.346Z,17.85
2019-02-19T14:58:21.076Z,17.00
2019-02-19T15:00:59.609Z,16.17
2019-02-19T15:03:32.364Z,15.88
2019-02-19T15:06:02.265Z,17.17
2019-02-19T15:11:13.795Z,18.25
2019-02-19T15:13:43.724Z,22.67
2019-02-19T15:16:29.786Z,22.17
2019-02-19T15:18:59.712Z,22.95
2019-02-19T15:21:45.674Z,25.55
2019-02-19T15:24:15.622Z,20.17
2019-02-19T15:27:00.659Z,17.82
2019-02-19T15:29:36.321Z,20.62
2019-02-19T15:32:09.093Z,20.27
2019-02-19T15:34:39.039Z,21.80
2019-02-19T15:37:18.119Z,23.75
2019-02-19T15:39:51.160Z,22.55
2019-02-19T15:42:23.972Z,20.55
2019-02-19T15:44:53.878Z,16.10
2019-02-19T15:47:23.810Z,11.43
2019-02-19T15:50:05.879Z,15.03
2019-02-19T15:52:51.045Z,15.28
2019-02-19T15:55:38.226Z,16.82
2019-02-19T15:58:07.897Z,19.73
2019-02-19T16:00:46.838Z,17.90
2019-02-19T16:03:19.791Z,22.52
2019-02-19T16:05:54.285Z,22.25
2019-02-19T16:08:30.177Z,20.37
2019-02-19T16:11:06.055Z,23.55
2019-02-19T16:13:46.135Z,29.75
2019-02-19T16:19:43.907Z,27.82
2019-02-19T16:22:22.817Z,24.05
2019-02-19T16:24:55.442Z,26.62
2019-02-19T16:27:25.374Z,23.27
2019-02-19T16:29:55.490Z,23.73
2019-02-19T16:32:28.171Z,24.50
2019-02-19T16:34:58.228Z,21.35
2019-02-19T16:37:37.243Z,26.45
2019-02-19T16:40:17.182Z,23.12
2019-02-19T16:42:52.723Z,25.35
2019-02-19T16:45:28.706Z,23.42
2019-02-19T16:48:01.397Z,22.75
2019-02-19T16:50:34.285Z,22.58
2019-02-19T16:53:20.253Z,23.55
2019-02-19T16:55:53.381Z,25.90
2019-02-19T16:58:23.291Z,21.77
2019-02-19T17:00:56.217Z,25.25
2019-02-19T17:03:38.342Z,27.20
2019-02-19T17:06:10.971Z,26.25
2019-02-19T17:08:40.875Z,27.35
2019-02-19T17:11:31.603Z,25.82
2019-02-19T17:14:10.541Z,44.85
2019-02-19T17:16:43.058Z,38.28
2019-02-19T17:19:18.653Z,22.93
2019-02-19T17:21:54.202Z,23.67
2019-02-19T17:24:26.532Z,27.00
2019-02-19T17:26:59.144Z,23.50
2019-02-19T17:29:45.304Z,28.55
2019-02-19T17:32:25.222Z,28.30
2019-02-19T17:34:55.141Z,31.85
2019-02-19T17:37:33.881Z,26.35
2019-02-19T17:40:09.354Z,27.22
2019-02-19T17:42:42.215Z,32.53
2019-02-19T17:45:16.559Z,30.12
2019-02-19T17:47:55.240Z,35.10
2019-02-19T17:50:25.154Z,25.05
2019-02-19T17:53:00.570Z,27.07
2019-02-19T17:55:32.114Z,25.82
2019-02-19T17:58:09.652Z,29.07
2019-02-19T18:00:55.950Z,35.23
2019-02-19T18:03:38.203Z,36.83
2019-02-19T18:06:08.112Z,32.17
2019-02-19T18:08:40.858Z,36.38
2019-02-19T18:11:13.405Z,29.67
2019-02-19T18:13:46.338Z,28.10
2019-02-19T18:16:34.328Z,30.55
2019-02-19T18:19:03.997Z,27.67
2019-02-19T18:21:32.737Z,28.98
2019-02-19T18:24:01.325Z,29.50
2019-02-19T18:26:31.608Z,24.57
2019-02-19T18:28:59.894Z,25.43
2019-02-19T18:31:28.156Z,27.65
2019-02-19T18:33:58.416Z,29.10
2019-02-19T18:36:26.872Z,31.85
2019-02-19T18:38:58.109Z,31.48
2019-02-19T18:41:26.369Z,27.02
2019-02-19T18:43:54.681Z,27.95
2019-02-19T18:46:23.026Z,28.73
2019-02-19T18:48:51.412Z,29.60
2019-02-19T18:51:21.849Z,31.35
2019-02-19T18:53:50.192Z,30.70
2019-02-19T18:56:18.567Z,29.27
2019-02-19T18:58:46.891Z,29.25
2019-02-19T19:01:16.759Z,27.65
2019-02-19T19:03:45.046Z,26.52
2019-02-19T19:06:13.394Z,34.67
2019-02-19T19:08:41.813Z,28.73
2019-02-19T19:11:10.122Z,30.88
2019-02-19T19:13:38.428Z,26.85
2019-02-19T19:16:06.770Z,32.90
2019-02-19T19:18:35.036Z,38.42
2019-02-19T19:21:07.883Z,31.17
2019-02-19T19:23:33.559Z,31.20
2019-02-19T19:26:02.186Z,31.82
2019-02-19T19:28:30.443Z,39.63
2019-02-19T19:30:58.827Z,32.00
2019-02-19T19:33:27.219Z,35.88
2019-02-19T19:35:55.839Z,28.42
2019-02-19T19:38:24.131Z,32.58
2019-02-19T19:40:52.615Z,33.23
2019-02-19T19:43:22.491Z,28.95
2019-02-19T19:45:53.791Z,35.80
2019-02-19T19:48:22.652Z,34.08
2019-02-19T19:50:50.981Z,32.17
2019-02-19T19:53:31.345Z,27.75
2019-02-19T19:55:59.609Z,36.73
2019-02-19T19:58:27.864Z,30.70
2019-02-19T20:00:56.177Z,31.68
2019-02-19T20:03:24.459Z,31.65
2019-02-19T20:05:52.917Z,36.03
2019-02-19T20:08:21.183Z,28.50
2019-02-19T20:10:49.507Z,34.03
2019-02-19T20:13:17.794Z,29.65
2019-02-19T20:15:47.793Z,30.05
2019-02-19T20:18:16.677Z,32.55
2019-02-19T20:20:45.861Z,27.62
2019-02-19T20:23:15.863Z,30.25
2019-02-19T20:25:46.155Z,31.20
2019-02-19T20:28:14.923Z,30.43
2019-02-19T20:30:43.186Z,30.25
2019-02-19T20:33:11.492Z,34.95
2019-02-19T20:35:41.526Z,28.70
2019-02-19T20:38:09.957Z,29.60
2019-02-19T20:40:38.208Z,30.68
2019-02-19T20:43:06.502Z,34.15
2019-02-19T20:45:37.781Z,31.68
2019-02-19T20:48:06.092Z,25.27
2019-02-19T20:50:34.388Z,33.20
2019-02-19T20:53:02.680Z,29.55
2019-02-19T20:55:36.874Z,32.00
2019-02-19T20:58:02.503Z,28.95
2019-02-19T21:00:30.783Z,26.97
2019-02-19T21:02:59.049Z,26.90
2019-02-19T21:05:27.320Z,27.42
2019-02-19T21:07:55.602Z,30.88
2019-02-19T21:10:23.863Z,28.87
2019-02-19T21:12:52.134Z,25.35
2019-02-19T21:15:20.561Z,29.67
2019-02-19T21:17:50.112Z,27.90
2019-02-19T21:20:18.482Z,34.98
2019-02-19T21:22:46.730Z,35.68
2019-02-19T21:25:15.116Z,32.35
2019-02-19T21:27:43.377Z,31.73
2019-02-19T21:30:13.741Z,36.28
2019-02-19T21:32:41.995Z,31.12
2019-02-19T21:35:10.509Z,37.23
2019-02-19T21:37:39.036Z,35.10
2019-02-19T21:40:12.754Z,33.70
2019-02-19T21:42:41.076Z,38.03
2019-02-19T21:45:11.043Z,36.17
2019-02-19T21:47:39.308Z,27.30
2019-02-19T21:50:09.965Z,30.50
2019-02-19T21:52:38.218Z,27.07
2019-02-19T21:55:08.857Z,31.90
2019-02-19T21:57:37.120Z,32.60
2019-02-19T22:00:13.451Z,34.83
2019-02-19T22:02:41.700Z,29.90
2019-02-19T22:05:10.112Z,30.27
2019-02-19T22:07:38.358Z,25.37
2019-02-19T22:10:09.260Z,29.63
2019-02-19T22:12:37.549Z,34.50
2019-02-19T22:15:10.974Z,37.00
2019-02-19T22:17:39.262Z,31.87
2019-02-19T22:20:18.419Z,35.00
2019-02-19T22:22:46.676Z,34.78
2019-02-19T22:25:14.966Z,38.55
2019-02-19T22:27:43.240Z,31.07
2019-02-19T22:30:14.588Z,35.85
2019-02-19T22:32:42.854Z,42.25
2019-02-19T22:35:14.184Z,33.55
2019-02-19T22:37:42.676Z,32.48
2019-02-19T22:40:11.322Z,37.05
2019-02-19T22:42:39.813Z,29.35
2019-02-19T22:45:09.898Z,30.10
2019-02-19T22:47:38.365Z,30.00
2019-02-19T22:50:08.697Z,30.72
2019-02-19T22:52:37.186Z,31.42
2019-02-19T22:55:11.481Z,35.90
2019-02-19T22:57:40.022Z,33.92
2019-02-19T23:00:16.122Z,29.60
2019-02-19T23:02:46.708Z,35.78
2019-02-19T23:05:15.331Z,32.33
2019-02-19T23:07:43.797Z,35.35
2019-02-19T23:10:12.317Z,31.97
2019-02-19T23:12:40.925Z,29.75
2019-02-19T23:15:09.700Z,34.48
2019-02-19T23:17:38.169Z,37.35
2019-02-19T23:20:07.742Z,34.60
2019-02-19T23:22:36.213Z,34.15
2019-02-19T23:25:06.178Z,35.92
2019-02-19T23:27:34.651Z,36.83
2019-02-19T23:30:03.276Z,32.13
2019-02-19T23:32:31.747Z,31.33
2019-02-19T23:35:11.159Z,30.70
2019-02-19T23:37:39.624Z,31.55
2019-02-19T23:40:08.324Z,35.95
2019-02-19T23:42:36.775Z,31.42
2019-02-19T23:45:07.880Z,35.28
2019-02-19T23:47:36.415Z,26.50
2019-02-19T23:50:07.052Z,31.00
2019-02-19T23:52:35.550Z,30.92
2019-02-19T23:55:05.192Z,35.10
2019-02-19T23:57:33.693Z,30.77
